Time;durP1;ratioP1;P1;durP2;ratioP2;P2;SDS_P1;SDS_P2;PMS_P1;PMS_P2;Temp;Humidity;BMP_temperature;BMP_pressure;BME280_temperature;BME280_humidity;BME280_pressure;Samples;Min_cycle;Max_cycle;Signal;HPM_P1;HPM_P2
2023/03/26 00:01:25;;;;;;;2.05;1.70;;;9.50;99.90;;;;;;5011472;28;20208;-65
2023/03/26 00:03:53;;;;;;;2.97;1.45;;;9.60;99.90;;;;;;5004874;28;20279;-65
2023/03/26 00:06:22;;;;;;;1.75;1.30;;;9.50;99.90;;;;;;5008150;28;20251;-65
2023/03/26 00:08:48;;;;;;;3.22;1.50;;;9.70;99.90;;;;;;5008044;28;20303;-65
2023/03/26 00:11:16;;;;;;;1.60;1.50;;;9.30;99.90;;;;;;5006817;28;20285;-66
2023/03/26 00:13:43;;;;;;;2.03;1.40;;;9.30;99.90;;;;;;5008504;28;20575;-66
2023/03/26 00:16:12;;;;;;;2.13;1.20;;;9.20;99.90;;;;;;5007712;28;20177;-65
2023/03/26 00:18:39;;;;;;;3.08;1.50;;;9.10;99.90;;;;;;5008686;28;20215;-66
2023/03/26 00:21:06;;;;;;;3.95;1.92;;;9.50;99.90;;;;;;5006879;28;20208;-65
2023/03/26 00:23:34;;;;;;;2.35;1.60;;;9.20;99.90;;;;;;5008192;28;20191;-65
2023/03/26 00:26:03;;;;;;;3.72;2.33;;;9.30;99.90;;;;;;5005021;28;20211;-66
2023/03/26 00:28:29;;;;;;;4.50;1.60;;;9.30;99.90;;;;;;5007637;28;20204;-66
2023/03/26 00:31:00;;;;;;;4.13;2.37;;;9.30;99.90;;;;;;5007928;28;20226;-66
2023/03/26 00:33:27;;;;;;;2.30;1.80;;;9.50;99.90;;;;;;5011133;28;20435;-66
2023/03/26 00:35:54;;;;;;;2.65;1.35;;;9.10;99.90;;;;;;5010099;28;20219;-65
2023/03/26 00:38:24;;;;;;;2.95;1.70;;;9.10;99.90;;;;;;5011379;28;20196;-65
2023/03/26 00:40:50;;;;;;;2.38;2.13;;;9.20;99.90;;;;;;5009798;28;20215;-65
2023/03/26 00:43:17;;;;;;;2.03;1.40;;;9.20;99.90;;;;;;5011940;28;20753;-65
2023/03/26 00:45:48;;;;;;;3.03;1.85;;;9.20;99.90;;;;;;5011452;28;20191;-65
2023/03/26 00:48:14;;;;;;;2.42;1.50;;;9.30;99.90;;;;;;5011522;28;20693;-66
2023/03/26 00:50:41;;;;;;;1.58;1.30;;;9.20;99.90;;;;;;5007781;28;20687;-65
2023/03/26 00:53:07;;;;;;;4.05;1.55;;;8.80;99.90;;;;;;5009811;28;20192;-65
2023/03/26 00:55:34;;;;;;;3.60;1.80;;;9.10;99.90;;;;;;5009919;28;20196;-65
2023/03/26 00:58:00;;;;;;;3.45;1.90;;;9.00;99.90;;;;;;5012486;28;20188;-65
2023/03/26 01:00:33;;;;;;;2.03;1.80;;;9.40;99.90;;;;;;5010925;28;20208;-65
2023/03/26 01:03:01;;;;;;;1.70;1.50;;;8.40;99.90;;;;;;5008367;28;20730;-65
2023/03/26 01:05:35;;;;;;;2.35;1.75;;;9.30;99.90;;;;;;5009909;28;20183;-65
2023/03/26 01:08:24;;;;;;;2.78;1.38;;;9.00;99.90;;;;;;5009497;28;20206;-65
2023/03/26 01:10:51;;;;;;;2.75;1.30;;;8.90;99.90;;;;;;5009146;28;20200;-65
2023/03/26 01:13:22;;;;;;;3.10;1.48;;;9.10;99.90;;;;;;5041431;28;20524;-65
2023/03/26 01:15:49;;;;;;;4.10;1.40;;;9.00;99.90;;;;;;5011379;28;20551;-65
2023/03/26 01:18:25;;;;;;;1.63;1.52;;;9.10;99.90;;;;;;5010973;28;20183;-65
2023/03/26 01:20:57;;;;;;;3.03;1.48;;;8.90;99.90;;;;;;5007862;28;20211;-65
2023/03/26 01:23:29;;;;;;;3.25;1.77;;;9.10;99.90;;;;;;5010547;28;20250;-65
2023/03/26 01:26:14;;;;;;;2.63;1.50;;;9.00;99.90;;;;;;5006498;28;20187;-65
2023/03/26 01:28:41;;;;;;;2.85;1.45;;;9.00;99.90;;;;;;5007303;28;20222;-65
2023/03/26 01:31:23;;;;;;;2.90;1.48;;;9.30;99.90;;;;;;5010395;28;20196;-65
2023/03/26 01:34:11;;;;;;;3.33;1.50;;;9.00;99.90;;;;;;5009542;28;20191;-65
2023/03/26 01:36:58;;;;;;;2.65;1.42;;;9.30;99.90;;;;;;5009384;28;20646;-65
2023/03/26 01:39:37;;;;;;;6.40;2.40;;;9.00;99.90;;;;;;5009693;28;20183;-65
2023/03/26 01:42:14;;;;;;;3.13;1.60;;;9.10;99.90;;;;;;5008822;28;20278;-65
2023/03/26 01:44:49;;;;;;;2.08;1.60;;;9.20;99.90;;;;;;5008831;28;20207;-65
2023/03/26 01:47:16;;;;;;;4.60;1.77;;;9.10;99.90;;;;;;5008209;28;20195;-65
2023/03/26 01:49:42;;;;;;;3.70;1.85;;;9.10;99.90;;;;;;5008466;28;20215;-65
2023/03/26 01:52:18;;;;;;;3.50;1.60;;;9.10;99.90;;;;;;5006307;28;20690;-64
2023/03/26 01:54:45;;;;;;;3.80;1.40;;;9.10;99.90;;;;;;5008751;28;20188;-64
2023/03/26 01:57:19;;;;;;;4.63;1.80;;;9.20;99.90;;;;;;5003384;28;20183;-68
2023/03/26 02:00:10;;;;;;;2.58;1.52;;;9.00;99.90;;;;;;5021625;28;20219;-66
2023/03/26 02:02:57;;;;;;;1.50;1.25;;;9.10;99.90;;;;;;5008344;28;20203;-66
2023/03/26 02:05:28;;;;;;;2.08;1.25;;;9.10;99.90;;;;;;5008166;28;20227;-66
2023/03/26 02:07:59;;;;;;;2.45;1.35;;;9.00;99.90;;;;;;5009286;28;20254;-66
2023/03/26 02:10:30;;;;;;;3.88;1.30;;;9.10;99.90;;;;;;5005126;28;20684;-66
2023/03/26 02:12:57;;;;;;;3.97;1.77;;;8.80;99.90;;;;;;5008185;28;20192;-66
2023/03/26 02:15:23;;;;;;;3.83;1.40;;;9.40;99.90;;;;;;5008436;28;20200;-66
2023/03/26 02:17:51;;;;;;;2.23;1.20;;;9.30;99.90;;;;;;5007297;28;20211;-67
2023/03/26 02:20:18;;;;;;;3.42;1.60;;;9.00;99.90;;;;;;5006474;28;20438;-66
2023/03/26 02:22:46;;;;;;;5.07;1.40;;;9.30;99.90;;;;;;5008112;28;20196;-66
2023/03/26 02:25:20;;;;;;;2.45;1.98;;;9.30;99.90;;;;;;5003965;28;20195;-66
2023/03/26 02:27:46;;;;;;;3.15;1.10;;;9.30;99.90;;;;;;5008116;28;20212;-66
2023/03/26 02:30:18;;;;;;;5.78;1.58;;;9.30;99.90;;;;;;5006836;28;20220;-67
2023/03/26 02:32:44;;;;;;;2.38;1.33;;;9.20;99.90;;;;;;5008118;28;20673;-66
2023/03/26 02:35:11;;;;;;;2.30;1.43;;;9.20;99.90;;;;;;5022728;28;20190;-67
2023/03/26 02:37:38;;;;;;;5.18;1.88;;;9.30;99.90;;;;;;5008092;28;20736;-66
2023/03/26 02:40:09;;;;;;;3.35;2.08;;;9.10;99.90;;;;;;5007290;28;20242;-67
2023/03/26 02:42:36;;;;;;;3.65;1.20;;;9.40;99.90;;;;;;5007047;28;20215;-66
2023/03/26 02:45:02;;;;;;;3.55;1.20;;;9.30;99.90;;;;;;5008025;28;20297;-67
2023/03/26 02:47:28;;;;;;;5.57;1.67;;;9.40;99.90;;;;;;5005372;28;20279;-66
2023/03/26 02:49:53;;;;;;;3.53;1.23;;;8.60;99.90;;;;;;5006957;28;20444;-67
2023/03/26 02:52:19;;;;;;;3.63;1.33;;;9.30;99.90;;;;;;5006805;28;20778;-67
2023/03/26 02:54:45;;;;;;;3.40;1.20;;;9.10;99.90;;;;;;5007825;28;20267;-67
2023/03/26 02:57:10;;;;;;;4.10;1.30;;;8.60;99.90;;;;;;5007841;28;20194;-67
2023/03/26 02:59:36;;;;;;;5.40;1.33;;;9.10;99.90;;;;;;5006359;28;21116;-66
2023/03/26 03:02:03;;;;;;;2.20;1.40;;;9.10;99.90;;;;;;5007782;28;20216;-66
2023/03/26 03:04:28;;;;;;;2.42;1.20;;;9.00;99.90;;;;;;5006977;28;20681;-66
2023/03/26 03:06:56;;;;;;;1.97;1.60;;;9.40;99.90;;;;;;5007645;28;20191;-66
2023/03/26 03:09:23;;;;;;;2.60;2.15;;;9.20;99.90;;;;;;5006770;28;20224;-66
2023/03/26 03:11:51;;;;;;;2.75;1.40;;;8.80;99.90;;;;;;5002512;28;20305;-67
2023/03/26 03:14:17;;;;;;;4.45;1.35;;;9.20;99.90;;;;;;5006025;28;20179;-67
2023/03/26 03:16:42;;;;;;;3.37;1.63;;;8.60;99.90;;;;;;5006744;28;20179;-67
2023/03/26 03:19:08;;;;;;;2.47;1.13;;;9.30;99.90;;;;;;5008321;28;20536;-67
2023/03/26 03:21:34;;;;;;;3.40;1.17;;;9.20;99.90;;;;;;5008163;28;20251;-66
2023/03/26 03:24:00;;;;;;;3.13;1.63;;;9.20;99.90;;;;;;5009088;28;20195;-66
2023/03/26 03:26:29;;;;;;;2.50;1.40;;;9.20;99.90;;;;;;5007758;28;20513;-67
2023/03/26 03:28:56;;;;;;;4.55;1.30;;;9.10;99.90;;;;;;5009465;28;20231;-67
2023/03/26 03:31:24;;;;;;;1.33;1.20;;;9.10;99.90;;;;;;5008365;28;20205;-67
2023/03/26 03:33:50;;;;;;;3.67;1.33;;;9.40;99.90;;;;;;5007678;28;20189;-66
2023/03/26 03:36:21;;;;;;;2.00;1.42;;;9.30;99.90;;;;;;5008509;28;20253;-67
2023/03/26 03:38:48;;;;;;;3.53;1.10;;;9.00;99.90;;;;;;5008631;28;20947;-67
2023/03/26 03:41:13;;;;;;;2.65;1.40;;;9.30;99.90;;;;;;5005982;28;20220;-67
2023/03/26 03:43:40;;;;;;;2.43;1.23;;;9.00;99.90;;;;;;5009545;28;20777;-67
2023/03/26 03:46:05;;;;;;;1.60;1.30;;;9.30;99.90;;;;;;5009769;28;20261;-67
2023/03/26 03:48:32;;;;;;;3.60;1.77;;;9.10;99.90;;;;;;5010093;28;20715;-67
2023/03/26 03:50:57;;;;;;;3.33;1.73;;;9.10;99.90;;;;;;5008830;28;20459;-67
2023/03/26 03:53:25;;;;;;;2.30;1.43;;;9.70;99.90;;;;;;5008623;28;20535;-66
2023/03/26 03:55:54;;;;;;;3.95;1.45;;;9.10;99.90;;;;;;5007806;28;20184;-66
2023/03/26 03:58:27;;;;;;;2.92;1.40;;;9.00;99.90;;;;;;5007383;28;20188;-67
2023/03/26 04:00:59;;;;;;;2.40;1.40;;;9.20;99.90;;;;;;5007513;28;20216;-66
2023/03/26 04:03:27;;;;;;;1.20;1.10;;;8.60;99.90;;;;;;5007485;28;20211;-66
2023/03/26 04:05:53;;;;;;;4.80;1.40;;;9.00;99.90;;;;;;5007553;28;20191;-67
2023/03/26 04:08:20;;;;;;;1.95;1.25;;;9.30;99.90;;;;;;5011183;28;20207;-66
2023/03/26 04:10:46;;;;;;;3.63;1.85;;;9.20;99.90;;;;;;5010427;28;20207;-66
2023/03/26 04:13:13;;;;;;;3.42;1.40;;;9.30;99.90;;;;;;5013604;28;20188;-66
2023/03/26 04:15:40;;;;;;;4.03;1.65;;;9.20;99.90;;;;;;5011991;28;20231;-66
2023/03/26 04:18:09;;;;;;;3.83;1.23;;;9.00;99.90;;;;;;5010990;28;20187;-67
2023/03/26 04:20:45;;;;;;;3.05;1.50;;;9.10;99.90;;;;;;5011625;28;20215;-66
2023/03/26 04:23:13;;;;;;;3.13;1.60;;;9.20;99.90;;;;;;5011987;28;20204;-66
2023/03/26 04:25:47;;;;;;;2.63;1.48;;;9.20;99.90;;;;;;5009806;28;20660;-66
2023/03/26 04:28:22;;;;;;;1.85;1.60;;;9.20;99.90;;;;;;5041902;28;20242;-66
2023/03/26 04:30:52;;;;;;;3.05;1.30;;;9.10;99.90;;;;;;5013130;28;20864;-66
2023/03/26 04:33:19;;;;;;;2.13;1.30;;;9.40;99.90;;;;;;5027898;28;20276;-66
2023/03/26 04:35:47;;;;;;;6.28;1.75;;;9.30;99.90;;;;;;5008473;28;20207;-66
2023/03/26 04:38:15;;;;;;;4.32;1.40;;;9.00;99.90;;;;;;5012274;28;20187;-67
2023/03/26 04:40:46;;;;;;;2.15;1.35;;;9.50;99.90;;;;;;5008957;28;20216;-66
2023/03/26 04:43:15;;;;;;;3.42;1.90;;;9.10;99.90;;;;;;5012959;28;20267;-66
2023/03/26 04:45:40;;;;;;;5.50;2.20;;;9.30;99.90;;;;;;5012392;28;20616;-66
2023/03/26 04:48:07;;;;;;;5.37;2.47;;;9.40;99.90;;;;;;5013766;28;20244;-66
2023/03/26 04:50:33;;;;;;;2.90;1.98;;;9.70;99.90;;;;;;5009237;28;20208;-66
2023/03/26 04:52:59;;;;;;;8.10;1.90;;;9.20;99.90;;;;;;5011122;28;20195;-66
2023/03/26 04:55:35;;;;;;;2.53;1.50;;;9.20;99.90;;;;;;5012011;28;20732;-66
2023/03/26 04:58:04;;;;;;;2.00;1.50;;;9.40;99.90;;;;;;5010765;28;20222;-66
2023/03/26 05:00:30;;;;;;;2.33;1.95;;;9.20;99.90;;;;;;5010834;28;20670;-66
2023/03/26 05:03:00;;;;;;;4.50;1.65;;;9.30;99.90;;;;;;5010868;28;20200;-66
2023/03/26 05:05:27;;;;;;;5.55;1.42;;;9.30;99.90;;;;;;5009576;28;20262;-66
2023/03/26 05:07:54;;;;;;;3.53;1.30;;;9.40;99.90;;;;;;5008829;28;20713;-66
2023/03/26 05:10:20;;;;;;;3.80;1.55;;;8.90;99.90;;;;;;5008164;28;20775;-66
2023/03/26 05:12:46;;;;;;;5.43;1.60;;;9.40;99.90;;;;;;5011963;28;20186;-66
2023/03/26 05:15:13;;;;;;;2.03;1.70;;;9.50;99.90;;;;;;5010223;28;20268;-66
2023/03/26 05:17:40;;;;;;;2.55;1.75;;;9.40;99.90;;;;;;5010649;28;20188;-66
2023/03/26 05:20:28;;;;;;;3.08;1.45;;;9.50;99.90;;;;;;5005968;28;20176;-66
2023/03/26 05:22:54;;;;;;;5.95;2.47;;;9.30;99.90;;;;;;5009792;28;20192;-66
2023/03/26 05:25:20;;;;;;;2.75;1.40;;;9.60;99.90;;;;;;5009653;28;20184;-66
2023/03/26 05:27:46;;;;;;;5.00;2.10;;;9.40;99.90;;;;;;5010039;28;20604;-66
2023/03/26 05:30:17;;;;;;;4.40;1.30;;;9.30;99.90;;;;;;5010777;28;20482;-66
2023/03/26 05:32:43;;;;;;;5.00;1.35;;;9.70;99.90;;;;;;5009593;28;20486;-66
2023/03/26 05:35:09;;;;;;;2.53;1.40;;;9.50;99.90;;;;;;5008630;28;20181;-66
2023/03/26 05:37:36;;;;;;;1.90;1.20;;;9.70;99.90;;;;;;5010497;28;20201;-66
2023/03/26 05:40:02;;;;;;;5.15;1.30;;;9.70;99.90;;;;;;5010627;28;20228;-66
2023/03/26 05:42:28;;;;;;;8.50;1.88;;;9.50;99.90;;;;;;5009026;28;20257;-66
2023/03/26 05:44:54;;;;;;;2.37;1.20;;;9.90;99.90;;;;;;5010585;28;20634;-66
2023/03/26 05:47:19;;;;;;;6.10;1.37;;;9.80;99.90;;;;;;5011252;28;20189;-66
2023/03/26 05:49:45;;;;;;;3.60;1.17;;;9.60;99.90;;;;;;5008639;28;20258;-66
2023/03/26 05:52:14;;;;;;;3.25;1.30;;;9.90;99.90;;;;;;5006187;28;20268;-66
2023/03/26 05:54:40;;;;;;;2.42;1.33;;;9.90;99.90;;;;;;5009708;28;20196;-66
2023/03/26 05:57:06;;;;;;;3.75;1.40;;;9.70;99.90;;;;;;5009126;28;20225;-66
2023/03/26 05:59:32;;;;;;;3.90;1.57;;;9.80;99.90;;;;;;5010321;28;20297;-66
2023/03/26 06:01:58;;;;;;;3.23;1.43;;;9.90;99.90;;;;;;5009969;28;20734;-66
2023/03/26 06:04:24;;;;;;;1.92;1.20;;;10.00;99.90;;;;;;5010477;28;20275;-66
2023/03/26 06:06:51;;;;;;;2.60;1.27;;;9.90;99.90;;;;;;5009467;28;20270;-66
2023/03/26 06:09:17;;;;;;;6.22;1.50;;;10.00;99.90;;;;;;5009659;28;20684;-66
2023/03/26 06:11:43;;;;;;;4.30;1.30;;;10.00;99.90;;;;;;5007773;28;20278;-66
2023/03/26 06:14:09;;;;;;;3.40;1.20;;;9.50;99.90;;;;;;5010180;28;20447;-66
2023/03/26 06:16:34;;;;;;;3.37;1.47;;;10.00;99.90;;;;;;5005915;28;20307;-66
2023/03/26 06:19:00;;;;;;;1.93;1.37;;;10.10;99.90;;;;;;5009369;28;20477;-66
2023/03/26 06:21:26;;;;;;;5.07;1.77;;;10.10;99.90;;;;;;5008785;28;20204;-66
2023/03/26 06:23:52;;;;;;;5.88;1.77;;;10.20;99.90;;;;;;5008646;28;20187;-66
2023/03/26 06:26:18;;;;;;;3.03;1.40;;;10.40;99.90;;;;;;5008045;28;20279;-70
2023/03/26 06:28:44;;;;;;;4.22;1.65;;;10.30;99.90;;;;;;5008821;28;20220;-67
2023/03/26 06:31:09;;;;;;;4.43;1.60;;;10.40;99.90;;;;;;5006291;28;20214;-67
2023/03/26 06:33:35;;;;;;;6.83;1.43;;;10.30;99.90;;;;;;5008816;28;20196;-67
2023/03/26 06:36:01;;;;;;;3.60;1.33;;;10.10;99.90;;;;;;5007445;28;20200;-66
2023/03/26 06:38:26;;;;;;;1.77;1.50;;;10.20;99.90;;;;;;5007019;28;20544;-66
2023/03/26 06:40:52;;;;;;;3.60;1.47;;;10.10;99.90;;;;;;5005094;28;20741;-67
2023/03/26 06:43:18;;;;;;;2.83;2.00;;;10.40;99.90;;;;;;5009903;28;20427;-66
2023/03/26 06:45:50;;;;;;;3.83;1.30;;;10.30;99.90;;;;;;5006684;28;20192;-67
2023/03/26 06:48:15;;;;;;;2.88;1.35;;;10.10;99.90;;;;;;5005449;28;20475;-66
2023/03/26 06:50:41;;;;;;;2.27;2.03;;;10.20;99.90;;;;;;5007703;28;20235;-66
2023/03/26 06:53:09;;;;;;;4.37;1.40;;;10.10;99.90;;;;;;5007544;28;20193;-67
2023/03/26 06:55:34;;;;;;;1.75;1.40;;;10.00;99.90;;;;;;5005412;28;20933;-67
2023/03/26 06:58:00;;;;;;;2.77;1.30;;;10.20;99.90;;;;;;5009765;28;20185;-67
2023/03/26 07:00:25;;;;;;;6.07;1.93;;;10.20;99.90;;;;;;5006720;28;20213;-66
2023/03/26 07:02:51;;;;;;;2.23;1.40;;;10.30;99.90;;;;;;5007912;28;20185;-66
2023/03/26 07:05:17;;;;;;;3.60;1.60;;;10.20;99.90;;;;;;5005494;28;20201;-67
2023/03/26 07:07:42;;;;;;;5.13;1.50;;;10.20;99.90;;;;;;5006462;28;20214;-67
2023/03/26 07:10:09;;;;;;;4.40;2.23;;;10.20;99.90;;;;;;5008057;28;20186;-67
2023/03/26 07:12:34;;;;;;;2.08;1.00;;;10.70;99.90;;;;;;5005326;28;20326;-67
2023/03/26 07:15:02;;;;;;;1.67;1.20;;;10.50;99.90;;;;;;5006588;28;20238;-66
2023/03/26 07:17:28;;;;;;;3.85;1.35;;;10.50;99.90;;;;;;5007503;28;20211;-66
2023/03/26 07:19:54;;;;;;;1.95;1.20;;;10.60;99.90;;;;;;5008918;28;20272;-66
2023/03/26 07:22:24;;;;;;;3.50;1.23;;;10.70;99.90;;;;;;5006664;28;20678;-67
2023/03/26 07:24:50;;;;;;;1.20;1.00;;;10.60;99.90;;;;;;5007603;28;20215;-67
2023/03/26 07:27:19;;;;;;;2.90;1.30;;;10.60;99.90;;;;;;5005823;28;20274;-67
2023/03/26 07:29:51;;;;;;;7.18;2.00;;;10.60;99.90;;;;;;5007686;28;20701;-67
2023/03/26 07:32:45;;;;;;;5.47;1.80;;;10.50;99.90;;;;;;5021293;28;20647;-67
2023/03/26 07:35:19;;;;;;;2.45;1.50;;;10.90;99.90;;;;;;5005289;28;20190;-67
2023/03/26 07:38:12;;;;;;;1.88;1.48;;;10.60;99.90;;;;;;5007834;28;20267;-67
2023/03/26 07:40:50;;;;;;;4.95;2.20;;;10.40;99.90;;;;;;5000976;28;20776;-67
2023/03/26 07:43:42;;;;;;;2.42;1.45;;;10.60;99.90;;;;;;5024100;28;20191;-67
2023/03/26 07:46:11;;;;;;;5.13;2.17;;;10.40;99.90;;;;;;5008395;28;20271;-67
2023/03/26 07:48:42;;;;;;;3.17;2.00;;;10.40;99.90;;;;;;5011115;28;20312;-67
2023/03/26 07:51:09;;;;;;;3.53;1.50;;;10.50;99.90;;;;;;5010319;28;20222;-67
2023/03/26 07:53:35;;;;;;;2.90;1.58;;;10.30;99.90;;;;;;5008480;28;20641;-68
2023/03/26 07:56:16;;;;;;;2.53;1.37;;;10.20;99.90;;;;;;5008335;28;20181;-68
2023/03/26 07:59:24;;;;;;;4.80;1.73;;;10.30;99.90;;;;;;5011533;28;20838;-68
2023/03/26 08:01:52;;;;;;;1.85;1.45;;;10.30;99.90;;;;;;5006029;28;20230;-66
2023/03/26 08:04:20;;;;;;;2.90;1.70;;;10.50;99.90;;;;;;5010115;28;20200;-67
2023/03/26 08:06:59;;;;;;;5.40;2.55;;;10.40;99.90;;;;;;5020528;28;20240;-67
2023/03/26 08:09:41;;;;;;;3.20;1.80;;;10.00;99.90;;;;;;5011052;28;20573;-67
2023/03/26 08:12:16;;;;;;;4.03;1.95;;;10.10;99.90;;;;;;5009791;28;20729;-66
2023/03/26 08:15:07;;;;;;;3.22;2.10;;;10.00;99.90;;;;;;5012893;28;20862;-67
2023/03/26 08:17:51;;;;;;;5.20;1.85;;;10.00;99.90;;;;;;5012103;28;20296;-69
2023/03/26 08:20:44;;;;;;;3.00;1.60;;;9.90;99.90;;;;;;5012406;28;20189;-69
2023/03/26 08:23:35;;;;;;;2.00;1.50;;;9.60;99.90;;;;;;5014383;28;20511;-69
2023/03/26 08:26:12;;;;;;;2.90;1.80;;;9.80;99.90;;;;;;5012053;28;20280;-69
2023/03/26 08:28:51;;;;;;;5.72;1.70;;;10.00;99.90;;;;;;5015680;28;20214;-69
2023/03/26 08:31:22;;;;;;;5.57;1.80;;;10.10;99.90;;;;;;5008562;28;20196;-69
2023/03/26 08:33:48;;;;;;;2.10;1.75;;;10.10;99.90;;;;;;5009563;28;20180;-66
2023/03/26 08:36:14;;;;;;;4.72;1.85;;;9.80;99.90;;;;;;5009373;28;20181;-66
2023/03/26 08:38:40;;;;;;;2.57;1.83;;;10.10;99.90;;;;;;5012133;28;20645;-65
2023/03/26 08:41:13;;;;;;;6.17;2.20;;;9.90;99.90;;;;;;5006095;28;20212;-70
2023/03/26 08:44:03;;;;;;;3.10;2.30;;;10.00;99.90;;;;;;5010355;28;20271;-69
2023/03/26 08:47:06;;;;;;;5.15;2.10;;;10.10;99.90;;;;;;5008302;28;20196;-69
2023/03/26 08:49:56;;;;;;;3.38;1.83;;;10.10;99.90;;;;;;5010803;28;20219;-69
2023/03/26 08:52:52;;;;;;;2.92;1.80;;;10.10;99.90;;;;;;5007081;28;20196;-66
2023/03/26 08:55:42;;;;;;;3.83;2.00;;;10.00;99.90;;;;;;5007924;28;20185;-66
2023/03/26 08:58:40;;;;;;;2.72;1.60;;;10.30;99.90;;;;;;5008526;28;20199;-72
2023/03/26 09:01:38;;;;;;;5.30;2.10;;;10.70;99.90;;;;;;5040990;28;20205;-65
2023/03/26 09:04:26;;;;;;;5.45;1.90;;;10.60;99.90;;;;;;4996282;28;20275;-65
2023/03/26 09:07:14;;;;;;;4.15;2.13;;;10.60;99.90;;;;;;5009759;28;23337;-72
2023/03/26 09:09:42;;;;;;;4.53;1.75;;;11.10;99.90;;;;;;5010534;28;20221;-70
2023/03/26 09:12:37;;;;;;;2.20;1.50;;;11.10;99.90;;;;;;5008542;28;20301;-71
2023/03/26 09:15:36;;;;;;;4.03;2.20;;;11.90;99.90;;;;;;5001635;28;20206;-67
2023/03/26 09:18:26;;;;;;;4.10;1.55;;;12.40;99.90;;;;;;5008673;28;20294;-66
2023/03/26 09:21:30;;;;;;;7.10;2.15;;;12.60;99.90;;;;;;5023050;28;20202;-68
2023/03/26 09:24:28;;;;;;;3.00;1.23;;;13.00;99.90;;;;;;5005537;28;20203;-65
2023/03/26 09:27:06;;;;;;;4.38;1.55;;;13.00;99.90;;;;;;5010686;28;20321;-77
2023/03/26 09:30:09;;;;;;;2.28;1.42;;;13.50;99.90;;;;;;5011147;28;21691;-69
2023/03/26 09:32:34;;;;;;;2.40;1.17;;;13.60;99.90;;;;;;5010331;28;20212;-67
2023/03/26 09:35:10;;;;;;;1.70;1.17;;;13.80;99.90;;;;;;5006483;28;20608;-66
2023/03/26 09:37:59;;;;;;;3.05;1.83;;;14.30;99.90;;;;;;5009911;28;20193;-66
2023/03/26 09:40:31;;;;;;;1.95;1.15;;;14.10;99.90;;;;;;5008082;28;21113;-72
2023/03/26 09:43:03;;;;;;;1.52;1.10;;;14.80;99.90;;;;;;5007736;28;20287;-72
2023/03/26 09:45:53;;;;;;;1.98;1.10;;;16.00;99.00;;;;;;5010366;28;20190;-74
2023/03/26 09:48:37;;;;;;;1.50;1.02;;;16.80;97.10;;;;;;5009652;28;20214;-74
2023/03/26 09:51:22;;;;;;;1.83;1.15;;;16.90;96.40;;;;;;5011601;28;20294;-74
2023/03/26 09:54:14;;;;;;;1.58;1.00;;;17.40;95.30;;;;;;4997552;28;20676;-68
2023/03/26 09:56:48;;;;;;;1.27;1.17;;;18.10;93.40;;;;;;5037709;28;20197;-73
2023/03/26 09:59:51;;;;;;;2.78;0.82;;;18.90;92.60;;;;;;5005499;28;20183;-68
2023/03/26 10:02:48;;;;;;;2.72;1.10;;;19.20;90.60;;;;;;5007789;28;20212;-69
2023/03/26 10:06:12;;;;;;;1.85;1.10;;;18.90;90.10;;;;;;5021888;28;20191;-67
2023/03/26 10:08:46;;;;;;;1.23;1.10;;;17.90;90.00;;;;;;5005047;28;20293;-68
2023/03/26 10:11:33;;;;;;;1.85;1.20;;;17.20;91.90;;;;;;4999865;28;20202;-67
2023/03/26 10:14:02;;;;;;;1.58;1.10;;;17.00;91.30;;;;;;5004753;28;20672;-66
2023/03/26 10:17:01;;;;;;;1.77;1.00;;;16.40;91.80;;;;;;5007289;28;20194;-67
2023/03/26 10:19:30;;;;;;;1.80;1.35;;;15.80;92.60;;;;;;5008175;28;20234;-67
2023/03/26 10:22:27;;;;;;;2.75;1.20;;;15.60;93.80;;;;;;5010818;28;20662;-66
2023/03/26 10:25:09;;;;;;;2.45;1.30;;;15.00;94.60;;;;;;5006459;28;20183;-73
2023/03/26 10:28:09;;;;;;;2.53;1.10;;;15.20;94.80;;;;;;5009028;28;20191;-74
2023/03/26 10:31:07;;;;;;;1.17;1.00;;;15.70;94.60;;;;;;5013596;28;20211;-72
2023/03/26 10:34:00;;;;;;;1.77;1.08;;;15.90;94.40;;;;;;5005477;28;20277;-65
2023/03/26 10:36:34;;;;;;;3.67;1.25;;;15.60;93.00;;;;;;5006822;28;20199;-65
2023/03/26 10:39:30;;;;;;;1.10;0.95;;;15.40;93.40;;;;;;5007577;28;20188;-66
2023/03/26 10:42:05;;;;;;;1.65;0.90;;;15.70;93.30;;;;;;5004906;28;20213;-67
2023/03/26 10:44:59;;;;;;;1.20;0.85;;;16.40;92.30;;;;;;5006432;28;20193;-64
2023/03/26 10:47:30;;;;;;;1.00;0.90;;;17.10;90.00;;;;;;5005387;28;20171;-66
2023/03/26 10:49:59;;;;;;;1.10;1.00;;;17.60;85.80;;;;;;5006963;28;20211;-66
2023/03/26 10:52:56;;;;;;;0.80;0.70;;;18.20;83.20;;;;;;5006920;28;20182;-64
2023/03/26 10:55:38;;;;;;;0.80;0.70;;;18.20;77.60;;;;;;5020386;28;20194;-66
2023/03/26 10:58:26;;;;;;;0.95;0.73;;;18.10;75.90;;;;;;5007393;28;20178;-66
2023/03/26 11:01:04;;;;;;;1.70;1.00;;;17.60;74.10;;;;;;5006814;28;20218;-66
2023/03/26 11:03:42;;;;;;;2.97;1.20;;;18.10;75.50;;;;;;5008732;28;20515;-66
2023/03/26 11:06:44;;;;;;;1.50;1.40;;;18.20;75.60;;;;;;5002843;28;20185;-66
2023/03/26 11:09:21;;;;;;;1.70;0.85;;;18.20;75.70;;;;;;5035784;28;20214;-66
2023/03/26 11:12:19;;;;;;;1.58;0.98;;;18.90;72.60;;;;;;5007768;28;20834;-67
2023/03/26 11:14:51;;;;;;;1.20;1.08;;;18.90;69.60;;;;;;5007525;28;20810;-66
2023/03/26 11:17:43;;;;;;;1.20;0.80;;;18.70;69.30;;;;;;5005809;28;20183;-66
2023/03/26 11:20:29;;;;;;;1.00;0.80;;;18.00;70.90;;;;;;5005864;28;20814;-65
2023/03/26 11:23:24;;;;;;;0.90;0.70;;;17.00;72.40;;;;;;5038490;28;20179;-66
2023/03/26 11:26:07;;;;;;;1.60;0.80;;;16.70;75.50;;;;;;5007146;28;20993;-66
2023/03/26 11:29:01;;;;;;;1.98;0.70;;;17.50;75.00;;;;;;5003559;28;20211;-66
2023/03/26 11:31:38;;;;;;;2.30;1.00;;;17.10;75.10;;;;;;5007231;28;20206;-66
2023/03/26 11:34:16;;;;;;;0.80;0.70;;;16.90;76.30;;;;;;5008608;28;20644;-67
2023/03/26 11:36:48;;;;;;;1.88;0.80;;;17.20;76.40;;;;;;5002162;28;20325;-66
2023/03/26 11:39:26;;;;;;;1.73;1.00;;;17.70;74.90;;;;;;5039133;28;20194;-66
2023/03/26 11:42:10;;;;;;;1.02;0.80;;;18.30;74.80;;;;;;5004406;28;20313;-66
2023/03/26 11:44:42;;;;;;;1.50;0.80;;;18.10;72.30;;;;;;5009259;28;20198;-66
2023/03/26 11:47:11;;;;;;;2.80;0.85;;;18.30;70.10;;;;;;5008852;28;20270;-66
2023/03/26 11:49:37;;;;;;;1.00;0.80;;;18.60;67.20;;;;;;5005225;28;20250;-64
2023/03/26 11:52:04;;;;;;;0.95;0.82;;;18.40;66.10;;;;;;5003811;28;20222;-64
2023/03/26 11:54:31;;;;;;;0.90;0.70;;;18.40;65.50;;;;;;5008785;28;20179;-65
2023/03/26 11:57:05;;;;;;;1.48;1.00;;;18.80;67.00;;;;;;5004066;28;20277;-65
2023/03/26 11:59:34;;;;;;;2.17;0.98;;;18.40;67.20;;;;;;5008259;28;20198;-65
2023/03/26 12:02:11;;;;;;;1.40;0.70;;;18.50;66.80;;;;;;5008714;28;20234;-65
2023/03/26 12:04:39;;;;;;;1.80;1.00;;;18.70;66.40;;;;;;5008555;28;20205;-65
2023/03/26 12:07:19;;;;;;;1.05;0.80;;;18.80;65.40;;;;;;5004309;28;20187;-65
2023/03/26 12:10:00;;;;;;;1.73;0.80;;;19.00;64.20;;;;;;5008722;28;20671;-65
2023/03/26 12:12:30;;;;;;;1.30;0.80;;;18.60;61.90;;;;;;5007225;28;20190;-65
2023/03/26 12:14:57;;;;;;;1.33;0.80;;;18.50;61.50;;;;;;5004349;28;20581;-65
2023/03/26 12:17:30;;;;;;;1.98;0.85;;;18.50;60.70;;;;;;5008190;28;20187;-65
2023/03/26 12:19:56;;;;;;;1.00;0.90;;;18.70;62.10;;;;;;5006015;28;20183;-64
2023/03/26 12:22:40;;;;;;;1.00;0.80;;;18.30;61.00;;;;;;5008153;28;20229;-65
2023/03/26 12:25:19;;;;;;;1.15;1.05;;;18.10;62.10;;;;;;5006593;28;20183;-64
2023/03/26 12:28:02;;;;;;;1.17;0.80;;;18.00;62.10;;;;;;5004541;28;20368;-65
2023/03/26 12:30:29;;;;;;;1.75;0.88;;;17.90;63.60;;;;;;5007626;28;20211;-65
2023/03/26 12:33:07;;;;;;;1.58;0.82;;;17.80;62.70;;;;;;5005319;28;20183;-65
2023/03/26 12:35:34;;;;;;;1.00;0.80;;;17.70;62.80;;;;;;5007457;28;20240;-65
2023/03/26 12:38:37;;;;;;;1.55;1.20;;;17.50;61.20;;;;;;5009529;28;20183;-65
2023/03/26 12:41:17;;;;;;;1.60;1.00;;;17.30;62.00;;;;;;4985820;28;20272;-65
2023/03/26 12:43:53;;;;;;;1.50;1.13;;;17.00;61.70;;;;;;5009266;28;20206;-65
2023/03/26 12:46:25;;;;;;;1.73;0.90;;;16.70;62.60;;;;;;5008023;28;20727;-65
2023/03/26 12:49:00;;;;;;;1.80;0.73;;;16.70;63.30;;;;;;5009186;28;20306;-66
2023/03/26 12:51:33;;;;;;;3.65;1.10;;;17.00;64.10;;;;;;5008367;28;20202;-65
2023/03/26 12:54:24;;;;;;;1.27;0.90;;;16.90;63.00;;;;;;5006331;28;20187;-65
2023/03/26 12:57:18;;;;;;;2.90;1.20;;;17.20;66.50;;;;;;5008832;28;20198;-65
2023/03/26 13:00:12;;;;;;;3.30;1.17;;;17.50;77.40;;;;;;5009822;28;20589;-65
2023/03/26 13:02:57;;;;;;;1.25;0.80;;;17.40;78.90;;;;;;5008340;28;20183;-65
2023/03/26 13:05:55;;;;;;;1.20;0.70;;;17.70;65.90;;;;;;5010475;28;20229;-65
2023/03/26 13:08:39;;;;;;;1.20;0.75;;;17.20;61.50;;;;;;5009008;28;20253;-65
2023/03/26 13:11:14;;;;;;;1.95;0.80;;;17.40;63.80;;;;;;5007889;28;20297;-65
2023/03/26 13:14:12;;;;;;;1.98;1.05;;;17.40;60.90;;;;;;5008302;28;20724;-65
2023/03/26 13:17:02;;;;;;;1.60;0.82;;;17.70;61.90;;;;;;5006825;28;20621;-65
2023/03/26 13:19:36;;;;;;;1.50;0.80;;;17.20;61.00;;;;;;5007877;28;20512;-65
2023/03/26 13:22:20;;;;;;;2.03;0.90;;;17.50;61.50;;;;;;5007539;28;20206;-65
2023/03/26 13:25:15;;;;;;;1.50;0.85;;;17.30;59.70;;;;;;5006401;28;20221;-65
2023/03/26 13:28:07;;;;;;;3.03;1.20;;;17.50;60.50;;;;;;5004668;28;21136;-65
2023/03/26 13:30:51;;;;;;;2.42;0.85;;;17.20;61.00;;;;;;5009835;28;20273;-65